Time;durP1;ratioP1;P1;durP2;ratioP2;P2;SDS_P1;SDS_P2;PMS_P1;PMS_P2;Temp;Humidity;BMP_temperature;BMP_pressure;BME280_temperature;BME280_humidity;BME280_pressure;Samples;Min_cycle;Max_cycle;Signal;HPM_P1;HPM_P2
2022/01/08 00:00:56;;;;;;;59.90;25.43;;;1.30;99.90;;;;;;5031243;28;20048;-87
2022/01/08 00:03:22;;;;;;;43.00;18.90;;;0.80;99.90;;;;;;5030967;28;20041;-85
2022/01/08 00:05:48;;;;;;;51.53;23.00;;;1.30;99.90;;;;;;5030394;28;20378;-85
2022/01/08 00:08:14;;;;;;;46.70;21.30;;;0.60;99.90;;;;;;5031093;28;20128;-85
2022/01/08 00:10:41;;;;;;;36.90;17.47;;;0.60;99.90;;;;;;5031308;28;20062;-85
2022/01/08 00:13:08;;;;;;;70.10;32.23;;;0.90;99.90;;;;;;5031677;28;20086;-84
2022/01/08 00:15:34;;;;;;;39.43;19.03;;;1.40;99.90;;;;;;5031029;28;20046;-87
2022/01/08 00:18:00;;;;;;;33.17;15.27;;;1.80;99.90;;;;;;5031272;28;20528;-86
2022/01/08 00:20:28;;;;;;;42.93;18.80;;;1.10;99.90;;;;;;5030049;28;20060;-87
2022/01/08 00:22:55;;;;;;;47.50;23.20;;;0.60;99.90;;;;;;5032528;28;20060;-85
2022/01/08 00:25:20;;;;;;;37.27;17.67;;;0.60;99.90;;;;;;5033683;28;20397;-85
2022/01/08 00:27:46;;;;;;;41.50;19.33;;;0.60;99.90;;;;;;5030059;28;20053;-85
2022/01/08 00:30:15;;;;;;;36.23;16.20;;;0.50;99.90;;;;;;5030676;28;20048;-85
2022/01/08 00:32:41;;;;;;;34.10;16.27;;;1.60;99.90;;;;;;5030889;28;20511;-85
2022/01/08 00:35:10;;;;;;;36.20;16.27;;;0.60;99.90;;;;;;5030068;28;20054;-85
2022/01/08 00:37:37;;;;;;;32.30;14.27;;;0.60;99.90;;;;;;5030197;28;20481;-85
2022/01/08 00:40:07;;;;;;;33.57;16.20;;;0.50;99.90;;;;;;5032219;28;20045;-85
2022/01/08 00:42:33;;;;;;;40.13;17.83;;;0.60;99.90;;;;;;5030791;28;20395;-85
2022/01/08 00:44:59;;;;;;;45.30;19.47;;;0.60;99.90;;;;;;5030855;28;20137;-85
2022/01/08 00:47:24;;;;;;;38.80;17.83;;;0.60;99.90;;;;;;5029973;28;20039;-85
2022/01/08 00:49:50;;;;;;;37.93;16.17;;;0.60;99.90;;;;;;5030750;28;20088;-85
2022/01/08 00:52:16;;;;;;;42.67;18.93;;;0.60;99.90;;;;;;5044039;28;20099;-85
2022/01/08 00:54:41;;;;;;;34.23;15.10;;;0.70;99.90;;;;;;5030165;28;20045;-85
2022/01/08 00:57:07;;;;;;;35.83;15.27;;;0.70;99.90;;;;;;5031712;28;20171;-85
2022/01/08 00:59:33;;;;;;;34.70;15.87;;;1.40;99.90;;;;;;5033960;28;20132;-85
2022/01/08 01:01:58;;;;;;;35.47;15.10;;;1.60;99.90;;;;;;5034715;28;20038;-85
2022/01/08 01:04:24;;;;;;;39.90;16.07;;;0.70;99.90;;;;;;5033859;28;20045;-85
2022/01/08 01:06:50;;;;;;;48.03;20.57;;;2.10;99.90;;;;;;5033616;28;20049;-85
2022/01/08 01:09:15;;;;;;;38.90;17.47;;;0.70;99.90;;;;;;5033184;28;20080;-84
2022/01/08 01:11:41;;;;;;;39.90;17.37;;;0.70;99.90;;;;;;5033557;28;20400;-85
2022/01/08 01:14:07;;;;;;;43.63;19.00;;;0.70;99.90;;;;;;5033500;28;20128;-84
2022/01/08 01:16:33;;;;;;;48.80;21.93;;;0.70;99.90;;;;;;5033331;28;20057;-85
2022/01/08 01:19:01;;;;;;;53.37;23.67;;;0.70;99.90;;;;;;5033981;28;20049;-85
2022/01/08 01:21:27;;;;;;;48.43;21.63;;;0.70;99.90;;;;;;5033395;28;20037;-85
2022/01/08 01:23:53;;;;;;;32.97;16.60;;;0.70;99.90;;;;;;5033305;28;20053;-85
2022/01/08 01:26:23;;;;;;;43.20;17.63;;;0.70;99.90;;;;;;5033658;28;20499;-85
2022/01/08 01:28:59;;;;;;;40.00;19.27;;;0.70;99.90;;;;;;5033729;28;20408;-85
2022/01/08 01:43:20;;;;;;;49.60;22.27;;;0.70;99.90;;;;;;5033240;28;19921;-85
2022/01/08 01:47:54;;;;;;;43.27;17.10;;;0.60;99.90;;;;;;5034851;28;20045;-85
2022/01/08 01:50:20;;;;;;;32.67;15.40;;;0.80;99.90;;;;;;5032857;28;20051;-85
2022/01/08 01:52:45;;;;;;;41.73;18.10;;;0.50;99.90;;;;;;5032297;28;20037;-85
2022/01/08 01:55:11;;;;;;;36.57;16.13;;;0.40;99.90;;;;;;5033244;28;20443;-85
2022/01/08 01:57:37;;;;;;;44.00;19.63;;;0.50;99.90;;;;;;5032417;28;20132;-85
2022/01/08 02:00:05;;;;;;;40.37;17.57;;;0.40;99.90;;;;;;5032578;28;20057;-84
2022/01/08 02:02:31;;;;;;;39.00;18.73;;;0.40;99.90;;;;;;5032310;28;20050;-85
2022/01/08 02:04:57;;;;;;;38.20;18.60;;;0.40;99.90;;;;;;5032402;28;20045;-85
2022/01/08 02:07:26;;;;;;;43.63;18.57;;;0.30;99.90;;;;;;5033655;28;20508;-85
2022/01/08 02:09:53;;;;;;;43.30;18.77;;;0.30;99.90;;;;;;5034257;28;20076;-85
2022/01/08 02:12:22;;;;;;;42.60;17.40;;;0.30;99.90;;;;;;5031763;28;20131;-85
2022/01/08 02:14:48;;;;;;;40.70;19.33;;;0.30;99.90;;;;;;5032976;28;20080;-85
2022/01/08 02:17:14;;;;;;;42.47;18.70;;;0.30;99.90;;;;;;5032870;28;20056;-86
2022/01/08 02:19:41;;;;;;;44.07;18.47;;;0.20;99.90;;;;;;5031995;28;20041;-85
2022/01/08 02:22:10;;;;;;;40.53;17.63;;;0.20;99.90;;;;;;5033779;28;20108;-85
2022/01/08 02:24:36;;;;;;;37.60;18.43;;;0.20;99.90;;;;;;5032439;28;20037;-85
2022/01/08 02:27:02;;;;;;;46.47;19.60;;;0.20;99.90;;;;;;5033530;28;20041;-86
2022/01/08 02:29:28;;;;;;;42.03;19.03;;;0.10;99.90;;;;;;5032318;28;20041;-85
2022/01/08 02:32:11;;;;;;;44.33;18.97;;;0.20;99.90;;;;;;5032716;28;20439;-85
2022/01/08 02:34:39;;;;;;;44.42;19.30;;;0.10;99.90;;;;;;5032270;28;20399;-86
2022/01/08 02:37:06;;;;;;;44.30;18.57;;;0.10;99.90;;;;;;5032526;28;20439;-86
2022/01/08 02:39:39;;;;;;;42.70;18.00;;;0.10;99.90;;;;;;5033268;28;20042;-85
2022/01/08 02:42:06;;;;;;;45.93;18.80;;;0.10;99.90;;;;;;5034376;28;20042;-85
2022/01/08 02:44:32;;;;;;;39.63;18.00;;;0.00;99.90;;;;;;5032534;28;20072;-85
2022/01/08 02:46:57;;;;;;;38.17;17.73;;;0.00;99.90;;;;;;5031870;28;20121;-86
2022/01/08 02:49:23;;;;;;;45.33;19.53;;;0.70;99.90;;;;;;5032532;28;20045;-85
2022/01/08 02:51:49;;;;;;;41.63;18.87;;;0.00;99.90;;;;;;5032115;28;20045;-86
2022/01/08 02:54:16;;;;;;;39.83;17.40;;;-0.10;99.90;;;;;;5031555;28;20048;-85
2022/01/08 02:56:44;;;;;;;40.13;18.30;;;-0.10;99.90;;;;;;5032382;28;20144;-85
2022/01/08 02:59:26;;;;;;;37.93;17.27;;;-0.20;99.90;;;;;;5032466;28;20053;-86
2022/01/08 03:01:58;;;;;;;37.10;17.03;;;0.20;99.90;;;;;;5032572;28;20045;-85
2022/01/08 03:04:36;;;;;;;32.97;15.63;;;-0.10;99.90;;;;;;5031624;28;20041;-86
2022/01/08 03:07:05;;;;;;;36.67;14.50;;;-0.10;99.90;;;;;;5031474;28;20052;-85
2022/01/08 03:09:33;;;;;;;31.33;14.20;;;-0.20;99.90;;;;;;5030896;28;20049;-86
2022/01/08 03:11:59;;;;;;;35.77;14.67;;;-0.10;99.90;;;;;;5033061;28;20105;-86
2022/01/08 03:14:24;;;;;;;33.87;14.30;;;0.00;99.90;;;;;;5031668;28;20587;-86
2022/01/08 03:16:50;;;;;;;27.83;13.20;;;0.10;99.90;;;;;;5031449;28;20054;-85
2022/01/08 03:19:16;;;;;;;27.77;12.60;;;0.10;99.90;;;;;;5031290;28;20049;-85
2022/01/08 03:21:44;;;;;;;30.23;12.93;;;0.10;99.90;;;;;;5031619;28;20041;-85
2022/01/08 03:24:15;;;;;;;30.00;13.10;;;0.20;99.90;;;;;;5032333;28;20153;-85
2022/01/08 03:26:41;;;;;;;29.63;12.57;;;0.10;99.90;;;;;;5032448;28;20107;-86
2022/01/08 03:29:08;;;;;;;23.07;11.70;;;0.10;99.90;;;;;;5030781;28;20045;-85
2022/01/08 03:31:33;;;;;;;31.60;13.00;;;0.00;99.90;;;;;;5032585;28;20041;-86
2022/01/08 03:33:59;;;;;;;26.70;12.20;;;0.00;99.90;;;;;;5031170;28;20558;-86
2022/01/08 03:36:25;;;;;;;28.60;13.10;;;0.30;99.90;;;;;;5029943;28;20065;-85
2022/01/08 03:38:52;;;;;;;31.40;13.23;;;-0.10;99.90;;;;;;5031809;28;20079;-85
2022/01/08 03:41:18;;;;;;;25.53;11.97;;;-0.10;99.90;;;;;;5031840;28;20045;-85
2022/01/08 03:43:43;;;;;;;29.77;12.47;;;-0.10;99.90;;;;;;5030854;28;20515;-85
2022/01/08 03:46:10;;;;;;;28.60;12.90;;;-0.10;99.90;;;;;;5031769;28;20049;-86
2022/01/08 03:48:48;;;;;;;30.87;13.60;;;-0.20;99.90;;;;;;5033473;28;20137;-85
2022/01/08 03:51:15;;;;;;;30.53;13.50;;;-0.20;99.90;;;;;;5032224;28;20042;-85
2022/01/08 03:53:41;;;;;;;28.70;13.07;;;-0.20;99.90;;;;;;5031403;28;20053;-85
2022/01/08 03:56:07;;;;;;;29.60;13.17;;;-0.20;99.90;;;;;;5031272;28;20053;-85
2022/01/08 03:58:32;;;;;;;30.47;12.77;;;0.00;99.90;;;;;;5030806;28;20049;-85
2022/01/08 04:00:58;;;;;;;31.70;12.90;;;0.90;99.90;;;;;;5032071;28;20392;-85
2022/01/08 04:03:23;;;;;;;28.47;11.53;;;-0.20;99.90;;;;;;5030551;28;20049;-85
2022/01/08 04:05:50;;;;;;;28.87;12.50;;;-0.20;99.90;;;;;;5031339;28;20651;-85
2022/01/08 04:08:17;;;;;;;29.47;12.63;;;-0.20;99.90;;;;;;5030872;28;20602;-85
2022/01/08 04:10:44;;;;;;;34.10;13.73;;;-0.20;99.90;;;;;;5031150;28;20064;-85
2022/01/08 04:13:13;;;;;;;34.80;13.17;;;-0.20;99.90;;;;;;5030409;28;20091;-85
2022/01/08 04:15:42;;;;;;;32.97;13.60;;;-0.20;99.90;;;;;;5031303;28;20053;-85
2022/01/08 04:18:09;;;;;;;32.10;13.63;;;-0.20;99.90;;;;;;5030828;28;20439;-85
2022/01/08 04:20:45;;;;;;;34.13;13.70;;;-0.20;99.90;;;;;;5032298;28;20042;-85
2022/01/08 04:23:10;;;;;;;32.30;13.67;;;0.40;99.90;;;;;;5031280;28;20045;-85
2022/01/08 04:25:36;;;;;;;34.43;14.70;;;-0.20;99.90;;;;;;5031296;28;20562;-86
2022/01/08 04:28:01;;;;;;;35.63;14.93;;;0.80;99.90;;;;;;5031326;28;20044;-85
2022/01/08 04:30:27;;;;;;;33.20;14.30;;;-0.10;99.90;;;;;;5030970;28;20050;-85
2022/01/08 04:32:52;;;;;;;31.93;13.67;;;-0.10;99.90;;;;;;5032656;28;20049;-85
2022/01/08 04:35:18;;;;;;;34.50;15.57;;;-0.20;99.90;;;;;;5034527;28;20045;-85
2022/01/08 04:37:44;;;;;;;30.40;13.10;;;-0.10;99.90;;;;;;5034713;28;20499;-85
2022/01/08 04:40:10;;;;;;;34.00;13.83;;;-0.20;99.90;;;;;;5034466;28;20053;-85
2022/01/08 04:42:35;;;;;;;31.17;14.97;;;-0.20;99.90;;;;;;5034266;28;20040;-85
2022/01/08 04:45:01;;;;;;;29.43;14.40;;;-0.20;99.90;;;;;;5034945;28;20131;-85
2022/01/08 04:47:27;;;;;;;36.10;15.23;;;-0.30;99.90;;;;;;5033420;28;20403;-85
2022/01/08 04:49:52;;;;;;;35.03;14.53;;;-0.30;99.90;;;;;;5034754;28;20412;-85
2022/01/08 04:52:18;;;;;;;32.73;14.10;;;-0.20;99.90;;;;;;5034012;28;20045;-85
2022/01/08 04:54:44;;;;;;;34.97;14.90;;;-0.20;99.90;;;;;;5033666;28;20049;-85
2022/01/08 04:57:09;;;;;;;33.93;14.77;;;0.10;99.90;;;;;;5036995;28;20508;-85
2022/01/08 04:59:35;;;;;;;37.47;14.77;;;-0.30;99.90;;;;;;5037654;28;20119;-85
2022/01/08 05:02:00;;;;;;;35.70;14.77;;;-0.20;99.90;;;;;;5025169;28;20053;-85
2022/01/08 05:04:27;;;;;;;34.10;14.93;;;-0.30;99.90;;;;;;5027347;28;20136;-86
2022/01/08 05:06:52;;;;;;;40.67;15.73;;;-0.30;99.90;;;;;;5033754;28;20373;-86
2022/01/08 05:09:18;;;;;;;33.17;14.30;;;-0.30;99.90;;;;;;5033506;28;20045;-86
2022/01/08 05:11:43;;;;;;;34.33;15.30;;;-0.10;99.90;;;;;;5034330;28;20060;-86
2022/01/08 05:14:10;;;;;;;35.00;15.30;;;0.60;99.90;;;;;;5035382;28;20125;-86
2022/01/08 05:16:36;;;;;;;38.93;15.97;;;-0.30;99.90;;;;;;5033124;28;20562;-86
2022/01/08 05:19:02;;;;;;;44.90;17.77;;;-0.40;99.90;;;;;;5034586;28;20087;-86
2022/01/08 05:21:31;;;;;;;38.33;16.57;;;-0.40;99.90;;;;;;5032790;28;20096;-85
2022/01/08 05:23:57;;;;;;;35.93;15.17;;;-0.10;99.90;;;;;;5034571;28;20513;-86
2022/01/08 05:26:25;;;;;;;42.57;15.80;;;-0.20;99.90;;;;;;5033846;28;20069;-86
2022/01/08 05:28:51;;;;;;;38.97;15.60;;;-0.50;99.90;;;;;;5033515;28;20049;-86
2022/01/08 05:31:20;;;;;;;37.90;17.33;;;-0.50;99.90;;;;;;5033961;28;20061;-85
2022/01/08 05:33:47;;;;;;;37.40;15.70;;;0.80;99.90;;;;;;5033633;28;20053;-86
2022/01/08 05:36:13;;;;;;;40.43;16.43;;;0.10;99.90;;;;;;5032644;28;20041;-85
2022/01/08 05:38:38;;;;;;;40.90;16.43;;;-0.60;99.90;;;;;;5034054;28;20501;-86
2022/01/08 05:41:04;;;;;;;41.47;16.53;;;-0.60;99.90;;;;;;5035144;28;20045;-85
2022/01/08 05:43:30;;;;;;;36.43;16.37;;;-0.50;99.90;;;;;;5032078;28;20045;-86
2022/01/08 05:45:56;;;;;;;36.10;15.67;;;-0.70;99.90;;;;;;5033653;28;20029;-86
2022/01/08 05:48:26;;;;;;;38.90;15.70;;;-0.70;99.90;;;;;;5033384;28;20497;-86
2022/01/08 05:50:52;;;;;;;38.73;16.73;;;-0.70;99.90;;;;;;5032766;28;20091;-86
2022/01/08 05:53:18;;;;;;;38.63;15.93;;;-0.60;99.90;;;;;;5033389;28;20400;-86
2022/01/08 05:55:44;;;;;;;39.63;15.87;;;-0.70;99.90;;;;;;5033928;28;20128;-86
2022/01/08 05:58:10;;;;;;;38.23;15.90;;;-0.70;99.90;;;;;;5032570;28;20059;-86
2022/01/08 06:00:36;;;;;;;41.23;15.93;;;-0.30;99.90;;;;;;5034620;28;20049;-86
2022/01/08 06:03:01;;;;;;;38.33;15.57;;;0.10;99.90;;;;;;5033368;28;20096;-85
2022/01/08 06:05:27;;;;;;;37.17;16.63;;;-0.60;99.90;;;;;;5034297;28;20509;-86
2022/01/08 06:07:53;;;;;;;34.77;15.67;;;0.40;99.90;;;;;;5037351;28;20115;-86
2022/01/08 06:10:19;;;;;;;37.93;15.87;;;-0.60;99.90;;;;;;5033288;28;20369;-86
2022/01/08 06:12:48;;;;;;;38.07;15.17;;;-0.70;99.90;;;;;;5032365;28;20103;-86
2022/01/08 06:15:14;;;;;;;67.27;16.60;;;-0.60;99.90;;;;;;5032433;28;20056;-86
2022/01/08 06:17:39;;;;;;;34.33;15.53;;;-0.60;99.90;;;;;;5034494;28;20041;-86
2022/01/08 06:20:05;;;;;;;38.20;15.60;;;0.20;99.90;;;;;;5032629;28;20045;-86
2022/01/08 06:22:31;;;;;;;32.47;14.57;;;-0.50;99.90;;;;;;5032274;28;20049;-85
2022/01/08 06:24:57;;;;;;;29.50;13.43;;;-0.60;99.90;;;;;;5033340;28;20033;-86
2022/01/08 06:27:22;;;;;;;33.40;14.00;;;0.00;99.90;;;;;;5032125;28;20049;-86
2022/01/08 06:29:48;;;;;;;33.97;13.57;;;-0.40;99.90;;;;;;5033918;28;20037;-86
2022/01/08 06:32:14;;;;;;;30.80;13.10;;;-0.40;99.90;;;;;;5033142;28;20175;-85
2022/01/08 06:34:41;;;;;;;30.67;13.00;;;0.10;99.90;;;;;;5032627;28;20104;-86
2022/01/08 06:37:06;;;;;;;29.40;12.77;;;0.40;99.90;;;;;;5032256;28;20056;-86
2022/01/08 06:39:32;;;;;;;28.73;11.90;;;-0.40;99.90;;;;;;5031464;28;20053;-85
2022/01/08 06:41:58;;;;;;;28.60;12.37;;;-0.40;99.90;;;;;;5033840;28;20038;-86
2022/01/08 06:44:23;;;;;;;32.37;13.20;;;-0.40;99.90;;;;;;5033626;28;20499;-86
2022/01/08 06:46:49;;;;;;;28.70;12.90;;;0.00;99.90;;;;;;5033342;28;20077;-86
2022/01/08 06:49:14;;;;;;;30.13;11.73;;;-0.30;99.90;;;;;;5033245;28;20045;-85
2022/01/08 06:51:40;;;;;;;25.97;11.60;;;0.10;99.90;;;;;;5033099;28;20045;-86
2022/01/08 06:54:06;;;;;;;32.23;11.83;;;0.00;99.90;;;;;;5030945;28;20064;-86
2022/01/08 06:56:31;;;;;;;31.03;11.87;;;-0.50;99.90;;;;;;5032686;28;20041;-86
2022/01/08 06:58:57;;;;;;;28.33;11.83;;;-0.50;99.90;;;;;;5032233;28;20407;-85
2022/01/08 07:01:23;;;;;;;25.33;12.03;;;0.40;99.90;;;;;;5031111;28;20037;-85
2022/01/08 07:03:48;;;;;;;26.50;11.20;;;-0.10;99.90;;;;;;5031852;28;20049;-86
2022/01/08 07:06:14;;;;;;;28.80;12.30;;;-0.30;99.90;;;;;;5031298;28;20382;-86
2022/01/08 07:08:40;;;;;;;29.40;12.23;;;-0.50;99.90;;;;;;5031207;28;20037;-86
2022/01/08 07:11:06;;;;;;;31.90;11.67;;;-0.50;99.90;;;;;;5031462;28;20056;-86
2022/01/08 07:13:31;;;;;;;27.13;12.60;;;-0.50;99.90;;;;;;5032244;28;20065;-86
2022/01/08 07:15:57;;;;;;;26.63;12.10;;;-0.50;99.90;;;;;;5037041;28;20045;-86
2022/01/08 07:18:22;;;;;;;31.57;13.97;;;-0.50;99.90;;;;;;5033271;28;20041;-86
2022/01/08 07:20:48;;;;;;;30.37;13.73;;;-0.50;99.90;;;;;;5033088;28;20041;-86
2022/01/08 07:23:13;;;;;;;33.77;15.30;;;-0.50;99.90;;;;;;5031058;28;20085;-85
2022/01/08 07:25:39;;;;;;;34.33;13.00;;;-0.60;99.90;;;;;;5032791;28;20042;-86
2022/01/08 07:28:05;;;;;;;32.20;15.20;;;-0.50;99.90;;;;;;5031134;28;20053;-85
2022/01/08 07:30:32;;;;;;;29.47;13.07;;;0.60;99.90;;;;;;5032683;28;20055;-86
2022/01/08 07:32:57;;;;;;;31.07;13.80;;;0.20;99.90;;;;;;5033404;28;20053;-86
2022/01/08 07:35:23;;;;;;;28.93;13.93;;;-0.30;99.90;;;;;;5030128;28;20849;-86
2022/01/08 07:37:53;;;;;;;32.77;14.40;;;-0.40;99.90;;;;;;5031272;28;20049;-86
2022/01/08 07:40:20;;;;;;;36.57;15.27;;;-0.40;99.90;;;;;;5031441;28;20389;-86
2022/01/08 07:42:46;;;;;;;30.37;14.73;;;0.00;99.90;;;;;;5030877;28;20081;-85
2022/01/08 07:45:12;;;;;;;27.80;12.07;;;-0.40;99.90;;;;;;5031464;28;20429;-87
2022/01/08 07:47:41;;;;;;;30.63;12.50;;;0.20;99.90;;;;;;5031669;23;20524;-88
2022/01/08 07:50:39;;;;;;;29.13;12.27;;;0.60;99.90;;;;;;5012360;28;20405;-91
2022/01/08 07:53:25;;;;;;;26.27;11.50;;;0.50;99.90;;;;;;5013064;28;20050;-93
2022/01/08 07:55:53;;;;;;;25.10;11.17;;;-0.20;99.90;;;;;;5013970;28;20045;-92
2022/01/08 07:58:25;;;;;;;26.73;11.73;;;0.90;99.90;;;;;;5012366;28;20485;-92
2022/01/08 08:00:57;;;;;;;28.93;12.00;;;-0.50;99.90;;;;;;5014435;28;20053;-91
2022/01/08 08:03:25;;;;;;;27.93;12.47;;;0.80;99.90;;;;;;5012843;28;20128;-93
2022/01/08 08:05:51;;;;;;;27.20;12.57;;;1.40;99.90;;;;;;5015441;28;20084;-91
2022/01/08 08:08:19;;;;;;;29.17;11.50;;;-0.50;99.90;;;;;;5024780;28;20038;-90
2022/01/08 08:10:50;;;;;;;28.33;12.13;;;-0.60;99.90;;;;;;5016425;28;20095;-90
2022/01/08 08:13:20;;;;;;;32.37;13.10;;;-0.70;99.90;;;;;;5015595;28;20050;-89
2022/01/08 08:15:47;;;;;;;29.30;13.27;;;1.00;99.90;;;;;;5008756;28;20504;-88
2022/01/08 08:18:13;;;;;;;30.50;14.50;;;0.60;99.90;;;;;;5007404;28;20038;-90
2022/01/08 08:20:39;;;;;;;32.50;14.03;;;-0.30;99.90;;;;;;5008201;28;20052;-90
2022/01/08 08:23:05;;;;;;;34.93;14.43;;;0.80;99.90;;;;;;5002353;28;20531;-89
2022/01/08 08:25:30;;;;;;;31.50;13.87;;;-1.00;99.90;;;;;;5003124;28;20046;-86
2022/01/08 08:28:06;;;;;;;32.73;15.03;;;0.60;99.90;;;;;;5001065;28;20153;-94
2022/01/08 08:30:35;;;;;;;30.57;14.20;;;-1.00;99.90;;;;;;5000239;28;20057;-91
2022/01/08 08:33:05;;;;;;;35.73;15.13;;;-0.70;99.90;;;;;;4999509;28;20048;-92
2022/01/08 08:35:31;;;;;;;33.53;14.57;;;-0.90;99.90;;;;;;4998871;28;20045;-91
2022/01/08 08:37:57;;;;;;;31.80;15.37;;;-0.80;99.90;;;;;;4999594;28;20052;-91
2022/01/08 08:40:23;;;;;;;32.93;16.20;;;-0.70;99.90;;;;;;5010125;23;20475;-91
2022/01/08 08:42:52;;;;;;;29.73;14.90;;;0.80;99.90;;;;;;5035559;28;20081;-91
2022/01/08 08:45:22;;;;;;;32.60;15.60;;;-0.50;99.90;;;;;;5042523;23;20072;-91
2022/01/08 08:47:56;;;;;;;36.17;15.13;;;-0.30;99.90;;;;;;5036353;28;20132;-91
2022/01/08 08:50:23;;;;;;;33.50;15.30;;;-0.60;99.90;;;;;;5035652;28;20107;-91
2022/01/08 08:52:55;;;;;;;33.00;15.80;;;-0.20;99.90;;;;;;5035503;28;20455;-93
2022/01/08 08:55:30;;;;;;;35.93;15.77;;;-0.80;99.90;;;;;;5060335;23;20057;-92
2022/01/08 08:58:02;;;;;;;36.30;15.60;;;0.00;99.90;;;;;;5035712;28;20046;-92
2022/01/08 09:00:31;;;;;;;38.17;17.17;;;-0.10;99.90;;;;;;5035550;28;20045;-91
2022/01/08 09:02:57;;;;;;;33.23;15.77;;;-0.50;99.90;;;;;;5092331;23;20401;-92
2022/01/08 09:05:31;;;;;;;29.57;16.10;;;-0.20;99.90;;;;;;5018572;28;20037;-92
2022/01/08 09:08:00;;;;;;;39.10;16.80;;;1.10;99.90;;;;;;5018832;28;20049;-91
2022/01/08 09:10:33;;;;;;;32.17;16.03;;;0.90;99.90;;;;;;5048972;23;20028;-91
2022/01/08 09:13:01;;;;;;;35.20;16.60;;;1.40;99.90;;;;;;5035384;28;20057;-91
2022/01/08 09:15:41;;;;;;;35.30;17.27;;;0.50;99.90;;;;;;5031872;28;20045;-92
2022/01/08 09:18:09;;;;;;;30.53;15.77;;;0.60;99.90;;;;;;5028595;28;20054;-90
2022/01/08 09:20:35;;;;;;;34.50;17.87;;;-0.10;99.90;;;;;;5017214;28;20045;-90
2022/01/08 09:23:13;;;;;;;33.20;16.23;;;0.80;99.90;;;;;;5018435;28;20033;-90
2022/01/08 09:25:39;;;;;;;41.43;23.33;;;0.20;99.90;;;;;;5018771;28;20056;-90
2022/01/08 09:28:14;;;;;;;34.47;16.70;;;1.70;99.90;;;;;;5017269;28;20037;-90
2022/01/08 09:30:52;;;;;;;37.13;17.47;;;0.50;99.90;;;;;;5017793;28;20053;-90
2022/01/08 09:33:33;;;;;;;37.70;16.40;;;0.40;99.90;;;;;;5024086;28;20057;-90
2022/01/08 09:36:15;;;;;;;32.80;16.17;;;0.30;99.90;;;;;;5018827;28;20131;-92
2022/01/08 09:38:53;;;;;;;31.10;17.43;;;0.80;99.90;;;;;;5025327;28;20553;-91
2022/01/08 09:41:18;;;;;;;33.10;16.07;;;0.50;99.90;;;;;;5031206;28;20087;-90
2022/01/08 09:43:53;;;;;;;30.33;14.80;;;0.20;99.90;;;;;;5032160;28;20453;-89
2022/01/08 09:46:21;;;;;;;29.13;16.47;;;1.40;99.90;;;;;;5031117;28;20033;-90
2022/01/08 09:48:48;;;;;;;29.50;14.63;;;0.10;99.90;;;;;;5042477;28;20710;-90
2022/01/08 09:51:14;;;;;;;29.57;15.87;;;0.40;99.90;;;;;;5029766;28;20053;-90
2022/01/08 09:53:55;;;;;;;29.07;14.90;;;0.40;99.90;;;;;;5032839;28;20042;-92
2022/01/08 09:56:29;;;;;;;28.07;15.73;;;0.50;99.90;;;;;;5025679;28;20053;-90
2022/01/08 09:58:56;;;;;;;35.07;16.03;;;0.50;99.90;;;;;;5020395;28;20528;-90
2022/01/08 10:01:37;;;;;;;34.10;14.53;;;2.70;99.90;;;;;;5012890;28;20050;-90
2022/01/08 10:04:06;;;;;;;30.40;13.90;;;1.80;99.90;;;;;;5014257;28;20041;-91
2022/01/08 10:06:36;;;;;;;29.00;14.07;;;1.10;99.90;;;;;;5019848;28;20081;-92
2022/01/08 10:09:04;;;;;;;28.20;13.57;;;2.00;99.90;;;;;;5020547;28;20114;-91
2022/01/08 10:11:31;;;;;;;25.47;12.83;;;0.30;99.90;;;;;;5019070;28;20132;-90
2022/01/08 10:14:14;;;;;;;31.30;14.53;;;1.80;99.90;;;;;;5027701;28;20068;-91
2022/01/08 10:20:23;;;;;;;29.10;14.50;;;1.00;99.90;;;;;;5037659;23;20064;-92
2022/01/08 10:23:18;;;;;;;26.23;13.70;;;1.10;99.90;;;;;;4989583;28;20046;-91
2022/01/08 10:26:13;;;;;;;31.53;17.80;;;1.60;99.90;;;;;;4988725;28;20370;-91
2022/01/08 10:28:49;;;;;;;26.50;13.03;;;1.10;99.90;;;;;;4988376;28;20042;-90
2022/01/08 10:31:40;;;;;;;30.23;14.40;;;3.00;99.90;;;;;;4984769;28;20507;-91
2022/01/08 10:34:12;;;;;;;26.53;13.93;;;1.40;99.90;;;;;;5009901;28;20105;-90
2022/01/08 10:36:41;;;;;;;25.87;13.00;;;0.20;99.90;;;;;;4989284;28;20039;-89
2022/01/08 10:39:09;;;;;;;27.10;12.23;;;1.60;99.90;;;;;;4989192;28;20100;-89
2022/01/08 10:41:52;;;;;;;22.47;13.80;;;1.20;99.90;;;;;;4995231;28;20472;-90
2022/01/08 10:44:27;;;;;;;23.42;13.13;;;1.10;99.90;;;;;;4997387;28;20393;-91
2022/01/08 10:47:05;;;;;;;23.83;13.93;;;1.60;99.90;;;;;;4986702;28;20085;-90
2022/01/08 10:50:00;;;;;;;22.27;13.30;;;2.90;99.90;;;;;;5002095;28;20038;-90
2022/01/08 10:52:29;;;;;;;23.33;13.63;;;1.90;99.90;;;;;;5037910;23;20053;-90
2022/01/08 10:54:58;;;;;;;24.73;13.27;;;1.80;99.90;;;;;;5005443;28;20452;-91
2022/01/08 10:57:45;;;;;;;26.00;13.73;;;1.50;99.90;;;;;;5004970;28;20042;-91
2022/01/08 11:00:28;;;;;;;20.77;12.57;;;2.00;99.90;;;;;;5004983;28;20124;-89
2022/01/08 11:02:54;;;;;;;25.65;14.20;;;2.00;99.90;;;;;;5007155;28;20038;-90
2022/01/08 11:05:22;;;;;;;26.80;13.60;;;2.00;99.90;;;;;;5015782;28;20403;-90
2022/01/08 11:08:39;;;;;;;;;;;;;;;;;;;;;
2022/01/08 11:11:27;;;;;;;26.33;13.83;;;3.10;99.90;;;;;;4972404;28;20077;-90
2022/01/08 11:17:22;;;;;;;23.63;13.67;;;2.10;99.90;;;;;;4975558;28;20061;-91
2022/01/08 11:19:53;;;;;;;24.80;13.27;;;2.20;99.90;;;;;;4994051;28;20054;-91
2022/01/08 11:23:06;;;;;;;23.30;14.13;;;2.50;99.90;;;;;;4991973;28;20162;-91
2022/01/08 11:25:41;;;;;;;25.40;13.83;;;2.30;99.90;;;;;;5045416;23;20060;-90
2022/01/08 11:28:17;;;;;;;25.47;13.97;;;3.00;99.90;;;;;;5035350;28;20052;-91
2022/01/08 11:31:04;;;;;;;25.67;13.10;;;2.40;99.90;;;;;;5052874;28;20037;-91
2022/01/08 11:36:02;;;;;;;24.43;13.47;;;2.10;99.90;;;;;;5043336;23;20053;-91
2022/01/08 11:38:29;;;;;;;28.93;14.63;;;2.10;99.90;;;;;;5031982;28;20107;-91
2022/01/08 11:41:12;;;;;;;26.43;15.03;;;1.90;99.90;;;;;;5032762;28;20076;-91
2022/01/08 11:44:29;;;;;;;25.97;14.87;;;2.10;99.90;;;;;;5046304;23;20050;-89
2022/01/08 11:50:33;;;;;;;27.23;15.03;;;2.30;99.90;;;;;;5165159;23;20278;-91
2022/01/08 11:56:24;;;;;;;25.97;16.27;;;2.40;99.90;;;;;;5080170;23;20080;-93
2022/01/08 11:59:33;;;;;;;28.67;16.08;;;3.30;99.90;;;;;;5055982;28;20135;-92
2022/01/08 12:02:15;;;;;;;27.67;16.00;;;2.50;99.90;;;;;;5055935;28;20173;-93
2022/01/08 12:04:52;;;;;;;26.87;15.10;;;1.60;99.90;;;;;;5054888;28;20040;-93
2022/01/08 12:11:11;;;;;;;27.73;17.00;;;2.80;99.90;;;;;;5054764;28;20499;-93
2022/01/08 12:23:12;;;;;;;32.77;18.93;;;2.60;99.90;;;;;;4978848;28;20073;-91
2022/01/08 12:32:45;;;;;;;34.20;18.80;;;2.70;99.90;;;;;;4994381;28;20133;-93
2022/01/08 12:35:25;;;;;;;27.73;16.57;;;2.40;99.90;;;;;;4995037;28;20050;-89
2022/01/08 12:37:56;;;;;;;30.60;18.23;;;2.30;99.90;;;;;;4994246;28;20065;-89
2022/01/08 12:40:49;;;;;;;32.27;18.60;;;2.40;99.90;;;;;;5012508;28;20045;-89
2022/01/08 12:43:18;;;;;;;31.43;19.23;;;1.80;99.90;;;;;;4995517;28;20053;-89
2022/01/08 12:46:24;;;;;;;36.13;19.23;;;2.50;99.90;;;;;;4994707;28;20049;-89
2022/01/08 12:49:05;;;;;;;36.97;19.67;;;2.50;99.90;;;;;;4995228;28;20069;-89
2022/01/08 12:51:49;;;;;;;35.43;19.63;;;2.30;99.90;;;;;;4994887;28;20052;-89
2022/01/08 12:54:17;;;;;;;36.40;17.98;;;2.00;99.90;;;;;;4997674;28;20404;-89
2022/01/08 12:57:06;;;;;;;37.37;19.73;;;2.30;99.90;;;;;;4999810;28;20045;-89
2022/01/08 12:59:52;;;;;;;33.47;19.50;;;2.80;99.90;;;;;;4999769;28;20136;-90
2022/01/08 13:02:38;;;;;;;34.47;18.10;;;2.30;99.90;;;;;;4999128;28;20049;-89
2022/01/08 13:05:03;;;;;;;31.90;18.80;;;2.20;99.90;;;;;;4998437;28;20499;-89
2022/01/08 13:07:29;;;;;;;33.13;18.77;;;2.50;99.90;;;;;;4997449;28;20060;-89
2022/01/08 13:10:16;;;;;;;33.83;18.00;;;2.30;99.90;;;;;;4998198;28;20045;-89
2022/01/08 13:13:11;;;;;;;;;;;;;;;;;;;;;
2022/01/08 13:15:43;;;;;;;35.63;17.53;;;2.40;99.90;;;;;;4997996;28;20060;-89
2022/01/08 13:18:34;;;;;;;31.27;16.43;;;2.70;99.90;;;;;;4998288;28;20389;-88
2022/01/08 13:21:09;;;;;;;34.33;17.80;;;2.60;99.90;;;;;;4999200;28;20049;-89
2022/01/08 13:27:35;;;;;;;30.27;15.47;;;2.50;99.90;;;;;;5010488;28;20080;-89
2022/01/08 13:30:22;;;;;;;;;;;;;;;;;;;;;
2022/01/08 13:36:06;;;;;;;31.70;15.03;;;2.60;99.90;;;;;;4967877;28;20074;-93
2022/01/08 13:39:00;;;;;;;29.93;15.53;;;2.60;99.90;;;;;;4972239;28;20481;-93
2022/01/08 13:41:44;;;;;;;;;;;2.70;99.90;;;;;;4966085;28;20490;-92
2022/01/08 13:45:01;;;;;;;32.85;15.13;;;2.80;99.90;;;;;;4966398;28;19929;-91
2022/01/08 13:48:03;;;;;;;32.53;16.67;;;1.90;99.90;;;;;;4959739;28;20062;-93
2022/01/08 13:50:57;;;;;;;28.33;14.70;;;2.60;99.90;;;;;;4961339;28;20489;-92
2022/01/08 13:53:32;;;;;;;;;;;;;;;;;;;;;